Time;durP1;ratioP1;P1;durP2;ratioP2;P2;SDS_P1;SDS_P2;PMS_P1;PMS_P2;Temp;Humidity;BMP_temperature;BMP_pressure;BME280_temperature;BME280_humidity;BME280_pressure;Samples;Min_cycle;Max_cycle;Signal;HPM_P1;HPM_P2
2024/01/25 00:02:23;;;;;;;14.83;3.87;;;11.80;99.90;;;;;;5020811;28;20257;-60
2024/01/25 00:04:51;;;;;;;16.27;4.30;;;11.80;99.90;;;;;;5023143;28;20234;-60
2024/01/25 00:07:18;;;;;;;19.10;4.20;;;11.80;99.90;;;;;;5023898;28;20641;-60
2024/01/25 00:09:44;;;;;;;12.33;3.53;;;11.80;99.90;;;;;;5022103;28;20855;-59
2024/01/25 00:12:11;;;;;;;15.63;3.73;;;11.80;99.90;;;;;;5020653;28;20211;-59
2024/01/25 00:14:38;;;;;;;12.73;3.27;;;11.80;99.90;;;;;;5021606;28;20206;-58
2024/01/25 00:17:05;;;;;;;17.20;3.80;;;11.90;99.90;;;;;;5024012;28;20214;-59
2024/01/25 00:19:32;;;;;;;18.60;3.53;;;11.90;99.90;;;;;;5024006;28;20242;-59
2024/01/25 00:22:00;;;;;;;19.93;4.40;;;11.80;99.90;;;;;;5020580;28;20207;-59
2024/01/25 00:24:27;;;;;;;16.40;4.60;;;11.90;99.90;;;;;;5020292;28;20223;-58
2024/01/25 00:26:54;;;;;;;18.80;4.13;;;11.90;99.90;;;;;;5023353;28;20286;-59
2024/01/25 00:29:20;;;;;;;24.07;5.80;;;11.90;99.90;;;;;;5023663;28;20252;-59
2024/01/25 00:31:47;;;;;;;19.50;5.43;;;11.90;99.90;;;;;;5021434;28;20723;-59
2024/01/25 00:34:14;;;;;;;19.63;4.67;;;12.00;99.90;;;;;;5020593;28;20237;-59
2024/01/25 00:36:41;;;;;;;16.87;3.93;;;12.00;99.90;;;;;;5021556;28;20210;-60
2024/01/25 00:39:10;;;;;;;16.73;4.33;;;12.00;99.90;;;;;;5023587;28;20222;-59
2024/01/25 00:41:37;;;;;;;18.03;4.13;;;12.00;99.90;;;;;;5022752;28;20206;-59
2024/01/25 00:44:04;;;;;;;17.07;3.77;;;12.00;99.90;;;;;;5020102;28;20609;-59
2024/01/25 00:46:31;;;;;;;15.93;3.73;;;12.10;99.90;;;;;;5019702;28;20626;-59
2024/01/25 00:48:58;;;;;;;15.50;3.87;;;12.10;99.90;;;;;;5023534;28;20272;-59
2024/01/25 00:51:25;;;;;;;20.17;4.33;;;12.10;99.90;;;;;;5023493;28;20210;-60
2024/01/25 00:53:53;;;;;;;16.40;4.00;;;12.10;99.90;;;;;;5020510;28;20217;-60
2024/01/25 00:56:21;;;;;;;15.87;3.33;;;12.10;99.90;;;;;;5019654;28;20668;-60
2024/01/25 00:58:49;;;;;;;23.80;4.40;;;12.10;99.90;;;;;;5021835;28;20243;-59
2024/01/25 01:01:16;;;;;;;19.20;3.70;;;12.10;99.90;;;;;;5023161;28;20740;-60
2024/01/25 01:03:43;;;;;;;17.83;3.87;;;12.00;99.90;;;;;;5021794;28;20202;-60
2024/01/25 01:06:10;;;;;;;15.43;4.23;;;12.00;99.90;;;;;;5019414;28;20219;-60
2024/01/25 01:08:38;;;;;;;14.73;3.50;;;12.00;99.90;;;;;;5020395;28;20285;-60
2024/01/25 01:11:05;;;;;;;15.97;4.13;;;11.90;99.90;;;;;;5023168;28;20213;-60
2024/01/25 01:13:33;;;;;;;17.13;3.87;;;12.00;99.90;;;;;;5023138;28;20209;-60
2024/01/25 01:15:59;;;;;;;16.10;3.73;;;12.00;99.90;;;;;;5011878;28;20261;-60
2024/01/25 01:18:26;;;;;;;20.07;4.60;;;12.00;99.90;;;;;;5019670;28;20538;-60
2024/01/25 01:20:53;;;;;;;15.77;4.00;;;11.90;99.90;;;;;;5022453;28;20210;-59
2024/01/25 01:23:19;;;;;;;22.10;4.13;;;11.90;99.90;;;;;;5022996;28;20206;-60
2024/01/25 01:25:46;;;;;;;16.00;3.73;;;11.90;99.90;;;;;;5020912;28;20272;-60
2024/01/25 01:28:13;;;;;;;14.00;3.93;;;11.90;99.90;;;;;;5019380;28;20712;-60
2024/01/25 01:30:41;;;;;;;14.80;4.13;;;11.90;99.90;;;;;;5020647;28;20209;-60
2024/01/25 01:33:08;;;;;;;14.10;3.43;;;11.90;99.90;;;;;;5022982;28;20202;-60
2024/01/25 01:35:35;;;;;;;20.60;3.93;;;11.90;99.90;;;;;;5022507;28;20285;-59
2024/01/25 01:38:02;;;;;;;16.47;3.67;;;12.00;99.90;;;;;;5019422;28;20226;-59
2024/01/25 01:40:29;;;;;;;14.33;3.80;;;12.00;99.90;;;;;;5019496;28;20207;-59
2024/01/25 01:43:00;;;;;;;16.60;3.77;;;12.00;99.90;;;;;;5022532;28;20209;-60
2024/01/25 01:45:26;;;;;;;20.40;4.33;;;12.00;99.90;;;;;;5022992;28;20214;-57
2024/01/25 01:47:55;;;;;;;20.27;4.97;;;11.90;99.90;;;;;;5022779;28;20206;-59
2024/01/25 01:50:22;;;;;;;14.83;3.67;;;12.00;99.90;;;;;;5023311;28;20199;-60
2024/01/25 01:52:50;;;;;;;13.40;3.67;;;11.90;99.90;;;;;;5025180;28;20214;-60
2024/01/25 01:55:17;;;;;;;14.40;3.77;;;12.00;99.90;;;;;;5026522;28;20669;-60
2024/01/25 01:57:44;;;;;;;19.23;4.90;;;11.90;99.90;;;;;;5024947;28;20210;-60
2024/01/25 02:00:16;;;;;;;15.93;4.20;;;11.80;99.90;;;;;;5022989;28;20238;-59
2024/01/25 02:02:43;;;;;;;13.03;3.47;;;11.80;99.90;;;;;;5024392;28;20239;-60
2024/01/25 02:05:11;;;;;;;16.40;3.60;;;11.80;99.90;;;;;;5026467;28;20226;-59
2024/01/25 02:07:40;;;;;;;14.53;3.73;;;11.90;99.90;;;;;;5025501;28;20268;-59
2024/01/25 02:10:08;;;;;;;18.63;4.00;;;11.80;99.90;;;;;;5023147;28;20223;-60
2024/01/25 02:12:34;;;;;;;13.17;3.60;;;11.80;99.90;;;;;;5022848;28;20203;-59
2024/01/25 02:15:01;;;;;;;17.70;3.43;;;11.80;99.90;;;;;;5026399;28;20206;-60
2024/01/25 02:17:27;;;;;;;17.93;3.73;;;11.90;99.90;;;;;;5025849;28;20213;-59
2024/01/25 02:19:54;;;;;;;18.30;3.93;;;11.90;99.90;;;;;;5023249;28;20230;-60
2024/01/25 02:22:22;;;;;;;15.07;3.87;;;11.80;99.90;;;;;;5022602;28;20291;-60
2024/01/25 02:24:49;;;;;;;12.70;2.87;;;11.80;99.90;;;;;;5024862;28;20218;-60
2024/01/25 02:27:15;;;;;;;17.50;4.10;;;11.80;99.90;;;;;;5025964;28;20198;-59
2024/01/25 02:29:42;;;;;;;13.63;3.97;;;11.80;99.90;;;;;;5024818;28;20299;-60
2024/01/25 02:32:09;;;;;;;15.87;3.80;;;11.70;99.90;;;;;;5022293;28;20732;-60
2024/01/25 02:34:35;;;;;;;19.47;3.77;;;11.80;99.90;;;;;;5022628;28;20210;-59
2024/01/25 02:37:02;;;;;;;16.50;4.33;;;11.80;99.90;;;;;;5025430;28;20194;-59
2024/01/25 02:39:30;;;;;;;17.13;3.90;;;11.80;99.90;;;;;;5025970;28;20242;-59
2024/01/25 02:41:57;;;;;;;14.13;3.57;;;11.80;99.90;;;;;;5022855;28;20304;-59
2024/01/25 02:44:24;;;;;;;12.77;3.33;;;11.80;99.90;;;;;;5022323;28;20625;-60
2024/01/25 02:46:50;;;;;;;16.70;3.60;;;11.90;99.90;;;;;;5023857;28;20233;-59
2024/01/25 02:49:17;;;;;;;16.40;3.50;;;11.90;99.90;;;;;;5025417;28;20232;-60
2024/01/25 02:51:43;;;;;;;13.43;3.47;;;11.90;99.90;;;;;;5024492;28;20211;-60
2024/01/25 02:54:10;;;;;;;16.43;3.40;;;11.90;99.90;;;;;;5022120;28;20207;-59
2024/01/25 02:56:38;;;;;;;17.20;4.13;;;11.80;99.90;;;;;;5022018;28;20267;-59
2024/01/25 02:59:05;;;;;;;16.53;3.53;;;11.80;99.90;;;;;;5024061;28;20253;-59
2024/01/25 03:01:39;;;;;;;13.87;3.53;;;11.70;99.90;;;;;;5025252;28;20726;-59
2024/01/25 03:04:06;;;;;;;16.87;3.47;;;11.80;99.90;;;;;;5014556;28;20754;-60
2024/01/25 03:06:32;;;;;;;14.87;3.67;;;11.80;99.90;;;;;;5022231;28;20322;-59
2024/01/25 03:08:59;;;;;;;15.87;4.03;;;11.80;99.90;;;;;;5023109;28;20230;-59
2024/01/25 03:11:26;;;;;;;16.97;3.90;;;11.80;99.90;;;;;;5021857;28;20203;-59
2024/01/25 03:13:53;;;;;;;17.93;4.07;;;11.80;99.90;;;;;;5024071;28;20629;-59
2024/01/25 03:16:20;;;;;;;21.50;4.00;;;11.80;99.90;;;;;;5025088;28;20199;-60
2024/01/25 03:18:47;;;;;;;17.40;4.30;;;11.80;99.90;;;;;;5023437;28;20237;-59
2024/01/25 03:21:14;;;;;;;16.90;3.63;;;11.80;99.90;;;;;;5021816;28;20250;-59
2024/01/25 03:23:40;;;;;;;14.47;3.60;;;11.90;99.90;;;;;;5022164;28;20211;-59
2024/01/25 03:26:07;;;;;;;18.47;3.37;;;11.90;99.90;;;;;;5024720;28;20236;-58
2024/01/25 03:28:35;;;;;;;17.93;3.60;;;11.80;99.90;;;;;;5024742;28;20273;-58
2024/01/25 03:31:04;;;;;;;17.97;3.83;;;11.80;99.90;;;;;;5021338;28;20226;-58
2024/01/25 03:33:32;;;;;;;15.73;3.37;;;11.80;99.90;;;;;;5021203;28;20656;-58
2024/01/25 03:36:02;;;;;;;13.93;3.57;;;11.80;99.90;;;;;;5023914;28;20551;-59
2024/01/25 03:38:29;;;;;;;16.50;3.77;;;11.70;99.90;;;;;;5024797;28;20222;-58
2024/01/25 03:40:56;;;;;;;11.50;3.47;;;11.70;99.90;;;;;;5021983;28;20672;-59
2024/01/25 03:43:23;;;;;;;14.10;3.70;;;11.70;99.90;;;;;;5021066;28;20203;-59
2024/01/25 03:45:50;;;;;;;19.07;3.80;;;11.60;99.90;;;;;;5022548;28;20641;-58
2024/01/25 03:48:18;;;;;;;12.23;3.67;;;11.70;99.90;;;;;;5024519;28;20303;-59
2024/01/25 03:50:45;;;;;;;14.43;4.03;;;11.60;99.90;;;;;;5023402;28;20218;-59
2024/01/25 03:53:12;;;;;;;15.67;3.43;;;11.70;99.90;;;;;;5021146;28;20294;-58
2024/01/25 03:55:38;;;;;;;13.07;3.40;;;11.70;99.90;;;;;;5020826;28;20586;-58
2024/01/25 03:58:05;;;;;;;16.57;3.47;;;11.70;99.90;;;;;;5020545;28;20669;-59
2024/01/25 04:00:32;;;;;;;16.20;4.63;;;11.60;99.90;;;;;;5021305;28;20207;-58
2024/01/25 04:02:58;;;;;;;16.87;4.43;;;11.70;99.90;;;;;;5023611;28;20248;-59
2024/01/25 04:05:27;;;;;;;19.70;4.37;;;11.50;99.90;;;;;;5024177;28;20202;-60
2024/01/25 04:07:53;;;;;;;18.97;3.93;;;11.50;99.90;;;;;;5021850;28;20265;-59
2024/01/25 04:10:20;;;;;;;16.13;4.27;;;11.60;99.90;;;;;;5020249;28;20214;-60
2024/01/25 04:12:46;;;;;;;20.73;4.23;;;11.60;99.90;;;;;;5022151;28;20257;-59
2024/01/25 04:15:13;;;;;;;13.87;3.40;;;11.60;99.90;;;;;;5024327;28;20209;-60
2024/01/25 04:17:40;;;;;;;12.37;4.07;;;11.70;99.90;;;;;;5023911;28;20694;-60
2024/01/25 04:20:08;;;;;;;15.50;3.43;;;11.70;99.90;;;;;;5020452;28;20603;-60
2024/01/25 04:22:36;;;;;;;13.30;3.60;;;11.70;99.90;;;;;;5020350;28;20622;-60
2024/01/25 04:25:04;;;;;;;16.17;3.73;;;11.70;99.90;;;;;;5012231;28;20294;-60
2024/01/25 04:27:31;;;;;;;14.70;3.53;;;11.70;99.90;;;;;;5020212;28;20231;-60
2024/01/25 04:29:57;;;;;;;20.50;3.83;;;11.60;99.90;;;;;;5022601;28;20736;-60
2024/01/25 04:32:24;;;;;;;12.23;3.53;;;11.60;99.90;;;;;;5023811;28;20226;-58
2024/01/25 04:34:51;;;;;;;15.00;4.23;;;11.60;99.90;;;;;;5022089;28;20210;-59
2024/01/25 04:37:17;;;;;;;17.93;3.87;;;11.60;99.90;;;;;;5019965;28;20253;-60
2024/01/25 04:39:45;;;;;;;17.47;3.87;;;11.60;99.90;;;;;;5020704;28;20226;-60
2024/01/25 04:42:12;;;;;;;15.83;4.73;;;11.50;99.90;;;;;;5023834;28;20210;-60
2024/01/25 04:44:39;;;;;;;16.07;3.80;;;11.50;99.90;;;;;;5023482;28;20209;-57
2024/01/25 04:47:05;;;;;;;15.67;4.13;;;11.60;99.90;;;;;;5019902;28;20365;-59
2024/01/25 04:49:32;;;;;;;15.33;3.80;;;11.50;99.90;;;;;;5019915;28;20230;-59
2024/01/25 04:51:59;;;;;;;11.37;3.20;;;11.50;99.90;;;;;;5022570;28;20210;-59
2024/01/25 04:54:25;;;;;;;15.30;3.50;;;11.50;99.90;;;;;;5023181;28;20699;-60
2024/01/25 04:56:54;;;;;;;19.97;4.67;;;11.40;99.90;;;;;;5021479;28;20202;-59
2024/01/25 04:59:21;;;;;;;14.27;3.83;;;11.40;99.90;;;;;;5019770;28;20235;-59
2024/01/25 05:01:47;;;;;;;14.80;4.03;;;11.40;99.90;;;;;;5021129;28;20217;-57
2024/01/25 05:04:14;;;;;;;15.07;4.07;;;11.50;99.90;;;;;;5023402;28;20213;-59
2024/01/25 05:06:41;;;;;;;14.77;3.93;;;11.50;99.90;;;;;;5022496;28;20218;-57
2024/01/25 05:09:08;;;;;;;15.23;3.47;;;11.40;99.90;;;;;;5019698;28;20222;-59
2024/01/25 05:11:38;;;;;;;15.90;3.73;;;11.30;99.90;;;;;;5019916;28;20207;-58
2024/01/25 05:14:06;;;;;;;17.23;3.83;;;11.30;99.90;;;;;;5019846;28;20199;-59
2024/01/25 05:16:33;;;;;;;20.97;4.33;;;11.20;99.90;;;;;;5019350;28;20207;-58
2024/01/25 05:19:00;;;;;;;13.07;3.30;;;11.00;99.90;;;;;;5022240;28;20233;-59
2024/01/25 05:21:26;;;;;;;15.10;4.07;;;10.90;99.90;;;;;;5023402;28;20213;-59
2024/01/25 05:23:53;;;;;;;16.10;3.30;;;10.80;99.90;;;;;;5025429;28;20249;-59
2024/01/25 05:26:20;;;;;;;16.43;3.47;;;10.70;99.90;;;;;;5023829;28;20250;-59
2024/01/25 05:28:46;;;;;;;17.33;4.33;;;10.60;99.90;;;;;;5024238;28;20226;-59
2024/01/25 05:31:16;;;;;;;18.67;3.83;;;10.40;99.90;;;;;;5027039;28;20226;-58
2024/01/25 05:33:43;;;;;;;12.60;3.47;;;10.30;99.90;;;;;;5026516;28;20237;-59
2024/01/25 05:36:09;;;;;;;13.77;3.70;;;10.20;99.90;;;;;;5023177;28;20210;-58
2024/01/25 05:38:36;;;;;;;17.10;3.77;;;10.00;99.90;;;;;;5023307;28;20708;-59
2024/01/25 05:41:03;;;;;;;20.13;7.27;;;9.90;99.90;;;;;;5026722;28;20206;-59
2024/01/25 05:43:30;;;;;;;15.37;3.67;;;9.90;99.90;;;;;;5026851;28;20219;-59
2024/01/25 05:45:57;;;;;;;15.03;4.10;;;9.90;99.90;;;;;;5024107;28;20206;-60
2024/01/25 05:48:25;;;;;;;14.17;3.33;;;9.80;99.90;;;;;;5023046;28;20238;-58
2024/01/25 05:50:52;;;;;;;16.03;3.90;;;9.70;99.90;;;;;;5024469;28;20222;-59
2024/01/25 05:53:19;;;;;;;13.17;3.83;;;9.70;99.90;;;;;;5026632;28;20217;-59
2024/01/25 05:55:46;;;;;;;16.27;3.70;;;9.60;99.90;;;;;;5025424;28;20205;-60
2024/01/25 05:58:13;;;;;;;17.67;3.67;;;9.60;99.90;;;;;;5022821;28;20728;-59
2024/01/25 06:00:39;;;;;;;11.50;3.37;;;9.60;99.90;;;;;;5022868;28;20673;-59
2024/01/25 06:03:06;;;;;;;17.50;5.10;;;9.60;99.90;;;;;;5014808;28;20677;-59
2024/01/25 06:05:34;;;;;;;16.53;4.07;;;9.70;99.90;;;;;;5022853;28;20237;-59
2024/01/25 06:08:01;;;;;;;21.70;5.00;;;9.70;99.90;;;;;;5025315;28;20231;-59
2024/01/25 06:10:27;;;;;;;16.20;3.47;;;9.70;99.90;;;;;;5026567;28;20203;-60
2024/01/25 06:12:54;;;;;;;15.80;3.93;;;9.80;99.90;;;;;;5024320;28;20637;-59
2024/01/25 06:15:21;;;;;;;16.23;4.00;;;9.80;99.90;;;;;;5022598;28;20207;-60
2024/01/25 06:17:47;;;;;;;19.07;4.10;;;9.80;99.90;;;;;;5022319;28;20253;-59
2024/01/25 06:20:14;;;;;;;17.63;4.43;;;9.80;99.90;;;;;;5026030;28;20222;-58
2024/01/25 06:22:42;;;;;;;17.57;4.23;;;9.70;99.90;;;;;;5026042;28;20676;-59
2024/01/25 06:25:09;;;;;;;26.10;4.13;;;9.70;99.90;;;;;;5014611;28;20673;-59
2024/01/25 06:27:36;;;;;;;21.13;5.13;;;9.60;99.90;;;;;;5022179;28;20226;-59
2024/01/25 06:30:02;;;;;;;16.20;4.20;;;9.60;99.90;;;;;;5024881;28;20727;-58
2024/01/25 06:32:29;;;;;;;16.07;4.37;;;9.50;99.90;;;;;;5025622;28;20206;-59
2024/01/25 06:34:56;;;;;;;17.43;4.00;;;9.50;99.90;;;;;;5023975;28;20207;-59
2024/01/25 06:37:22;;;;;;;19.60;4.40;;;9.50;99.90;;;;;;5022290;28;20595;-60
2024/01/25 06:39:50;;;;;;;19.40;3.73;;;9.40;99.90;;;;;;5023234;28;20301;-59
2024/01/25 06:42:17;;;;;;;18.80;4.70;;;9.40;99.90;;;;;;5025617;28;20210;-59
2024/01/25 06:44:44;;;;;;;15.73;3.57;;;9.40;99.90;;;;;;5025709;28;20233;-58
2024/01/25 06:47:10;;;;;;;15.27;4.17;;;9.40;99.90;;;;;;5022046;28;20281;-59
2024/01/25 06:49:37;;;;;;;11.57;3.60;;;9.40;99.90;;;;;;5021951;28;20233;-62
2024/01/25 06:52:04;;;;;;;18.33;6.00;;;9.40;99.90;;;;;;5024811;28;20206;-57
2024/01/25 06:54:31;;;;;;;21.70;5.50;;;9.30;99.90;;;;;;5025225;28;20264;-57
2024/01/25 06:56:59;;;;;;;20.33;4.67;;;9.40;99.90;;;;;;5022819;28;20378;-58
2024/01/25 06:59:26;;;;;;;16.23;4.30;;;9.50;99.90;;;;;;5021654;28;20240;-58
2024/01/25 07:01:53;;;;;;;17.47;3.90;;;9.60;99.90;;;;;;5023210;28;20254;-60
2024/01/25 07:04:19;;;;;;;19.53;4.17;;;9.70;99.90;;;;;;5020264;28;20578;-58
2024/01/25 07:06:46;;;;;;;14.47;3.90;;;9.80;99.90;;;;;;5021903;28;20229;-59
2024/01/25 07:09:13;;;;;;;14.80;4.20;;;10.00;99.90;;;;;;5025180;28;20272;-58
2024/01/25 07:11:39;;;;;;;22.37;4.80;;;10.10;99.90;;;;;;5025097;28;20213;-58
2024/01/25 07:14:07;;;;;;;22.43;5.50;;;10.20;99.90;;;;;;5021665;28;20217;-57
2024/01/25 07:16:34;;;;;;;16.80;4.53;;;10.30;99.90;;;;;;5021107;28;20245;-58
2024/01/25 07:19:01;;;;;;;16.77;4.40;;;10.40;99.90;;;;;;5023551;28;20646;-58
2024/01/25 07:21:27;;;;;;;13.63;3.83;;;10.50;99.90;;;;;;5024878;28;20206;-58
2024/01/25 07:23:54;;;;;;;17.73;3.93;;;10.60;99.90;;;;;;5023337;28;20256;-58
2024/01/25 07:26:21;;;;;;;11.83;3.90;;;10.60;99.90;;;;;;5020994;28;20211;-58
2024/01/25 07:28:48;;;;;;;20.23;4.13;;;10.70;99.90;;;;;;5021837;28;20227;-57
2024/01/25 07:31:16;;;;;;;15.43;3.83;;;10.70;99.90;;;;;;5024758;28;20241;-58
2024/01/25 07:33:43;;;;;;;16.63;3.83;;;10.80;99.90;;;;;;5024629;28;20206;-58
2024/01/25 07:36:10;;;;;;;18.13;3.53;;;10.80;99.90;;;;;;5020841;28;20250;-58
2024/01/25 07:38:36;;;;;;;22.27;4.97;;;10.90;99.90;;;;;;5020944;28;20230;-58
2024/01/25 07:41:03;;;;;;;14.37;4.10;;;11.00;99.90;;;;;;5023514;28;20234;-58
2024/01/25 07:43:30;;;;;;;16.50;4.77;;;11.00;99.90;;;;;;5024582;28;20198;-57
2024/01/25 07:45:56;;;;;;;14.77;3.93;;;11.00;99.90;;;;;;5021751;28;20211;-58
2024/01/25 07:48:24;;;;;;;13.47;3.57;;;11.00;99.90;;;;;;5020940;28;20231;-57
2024/01/25 07:50:51;;;;;;;15.43;3.83;;;11.10;99.90;;;;;;5021573;28;20265;-59
2024/01/25 07:53:18;;;;;;;17.37;3.60;;;11.20;99.90;;;;;;5024308;28;20272;-58
2024/01/25 07:55:45;;;;;;;18.30;4.93;;;11.30;99.90;;;;;;5023754;28;20647;-57
2024/01/25 07:58:12;;;;;;;12.30;3.70;;;11.30;99.90;;;;;;5020570;28;20199;-59
2024/01/25 08:00:38;;;;;;;14.03;3.57;;;11.30;99.90;;;;;;5020818;28;20206;-58
2024/01/25 08:03:06;;;;;;;16.50;5.63;;;11.40;99.90;;;;;;5023310;28;20616;-58
2024/01/25 08:05:33;;;;;;;14.97;3.93;;;11.60;99.90;;;;;;5023819;28;20595;-58
2024/01/25 08:08:00;;;;;;;16.60;4.67;;;11.60;99.90;;;;;;5021274;28;20298;-57
2024/01/25 08:10:27;;;;;;;14.63;4.17;;;11.70;99.90;;;;;;5020872;28;20622;-57
2024/01/25 08:12:54;;;;;;;16.17;3.90;;;11.70;99.90;;;;;;5021585;28;20214;-58
2024/01/25 08:15:20;;;;;;;20.83;4.73;;;11.80;99.90;;;;;;5024038;28;20210;-57
2024/01/25 08:17:47;;;;;;;16.00;4.00;;;11.80;99.90;;;;;;5023253;28;20541;-58
2024/01/25 08:20:14;;;;;;;20.67;5.07;;;11.90;99.90;;;;;;5020225;28;20318;-58
2024/01/25 08:22:43;;;;;;;14.37;3.97;;;11.90;99.90;;;;;;5020131;28;20210;-58
2024/01/25 08:25:10;;;;;;;15.47;4.93;;;12.00;99.90;;;;;;5023647;28;20202;-58
2024/01/25 08:27:37;;;;;;;18.43;4.77;;;12.10;99.90;;;;;;5023255;28;20664;-58
2024/01/25 08:30:04;;;;;;;18.17;4.67;;;12.20;99.90;;;;;;5021128;28;20226;-59
2024/01/25 08:32:31;;;;;;;18.67;5.33;;;12.30;99.90;;;;;;5020019;28;20211;-58
2024/01/25 08:34:57;;;;;;;22.90;4.60;;;12.50;99.90;;;;;;5021650;28;20207;-59
2024/01/25 08:37:24;;;;;;;21.33;4.63;;;12.60;99.90;;;;;;5023219;28;20256;-59
2024/01/25 08:39:52;;;;;;;19.40;4.93;;;12.60;99.90;;;;;;5022735;28;20226;-60
2024/01/25 08:42:20;;;;;;;19.80;4.43;;;12.60;99.90;;;;;;5019795;28;20731;-58
2024/01/25 08:44:49;;;;;;;22.27;4.63;;;12.50;99.90;;;;;;5019911;28;20211;-57
2024/01/25 08:47:16;;;;;;;16.00;4.10;;;12.40;99.90;;;;;;5023067;28;20301;-57
2024/01/25 08:49:43;;;;;;;17.17;4.03;;;12.30;99.90;;;;;;5023189;28;20226;-57
2024/01/25 08:52:09;;;;;;;13.20;4.07;;;12.20;99.90;;;;;;5019980;28;20290;-57
2024/01/25 08:54:37;;;;;;;18.67;4.33;;;12.10;99.90;;;;;;5019996;28;20227;-60
2024/01/25 08:57:06;;;;;;;15.73;4.23;;;12.00;99.90;;;;;;5021712;28;20202;-57
2024/01/25 08:59:35;;;;;;;13.53;4.33;;;12.00;99.90;;;;;;5022744;28;20284;-58
2024/01/25 09:02:01;;;;;;;15.83;4.47;;;12.00;99.90;;;;;;5020768;28;20230;-58
2024/01/25 09:04:28;;;;;;;16.57;4.77;;;12.00;99.90;;;;;;5019412;28;20584;-59
2024/01/25 09:06:55;;;;;;;15.57;4.50;;;12.00;99.90;;;;;;5020550;28;20599;-58
2024/01/25 09:09:22;;;;;;;15.73;3.83;;;12.00;99.90;;;;;;5022849;28;20769;-58
2024/01/25 09:11:48;;;;;;;19.00;4.67;;;11.90;99.90;;;;;;5022601;28;20256;-59
2024/01/25 09:14:16;;;;;;;20.73;4.93;;;11.80;99.90;;;;;;5019599;28;20685;-58
2024/01/25 09:16:43;;;;;;;18.80;4.37;;;11.80;99.90;;;;;;5019681;28;20569;-59
2024/01/25 09:19:10;;;;;;;17.00;4.87;;;11.60;99.90;;;;;;5022455;28;20309;-58
2024/01/25 09:21:39;;;;;;;19.20;4.30;;;11.60;99.90;;;;;;5023400;28;20213;-58
2024/01/25 09:24:06;;;;;;;18.23;4.30;;;11.60;99.90;;;;;;5020741;28;20206;-58
2024/01/25 09:26:33;;;;;;;20.30;5.50;;;11.50;99.90;;;;;;5019670;28;20293;-58
2024/01/25 09:28:59;;;;;;;16.93;4.30;;;11.50;99.90;;;;;;5021144;28;20721;-59
2024/01/25 09:31:27;;;;;;;17.13;3.90;;;11.60;99.90;;;;;;5023048;28;20665;-59
2024/01/25 09:33:54;;;;;;;18.93;3.97;;;11.70;99.90;;;;;;5022192;28;20210;-58
2024/01/25 09:36:21;;;;;;;21.87;4.37;;;11.70;99.90;;;;;;5019618;28;20211;-58
2024/01/25 09:38:47;;;;;;;18.80;4.57;;;11.80;99.90;;;;;;5019654;28;20583;-59
2024/01/25 09:41:15;;;;;;;14.43;4.33;;;11.80;99.90;;;;;;5023019;28;20202;-59
2024/01/25 09:43:42;;;;;;;21.40;4.87;;;11.80;99.90;;;;;;5022953;28;20268;-59
2024/01/25 09:46:13;;;;;;;18.07;4.73;;;11.90;99.90;;;;;;5019519;28;20585;-58
2024/01/25 09:48:43;;;;;;;19.57;4.60;;;11.90;99.90;;;;;;5019057;28;20281;-57
2024/01/25 09:51:12;;;;;;;20.10;4.90;;;12.00;99.90;;;;;;5022507;28;20301;-59
2024/01/25 09:53:40;;;;;;;18.07;4.30;;;12.00;99.90;;;;;;5022688;28;20738;-57
2024/01/25 09:56:08;;;;;;;16.77;4.20;;;12.00;99.90;;;;;;5019991;28;20202;-58
2024/01/25 09:58:39;;;;;;;20.10;4.40;;;12.00;99.90;;;;;;5019597;28;20709;-58
2024/01/25 10:01:09;;;;;;;14.47;4.13;;;12.10;99.90;;;;;;5022183;28;20234;-58
2024/01/25 10:03:35;;;;;;;19.70;4.30;;;12.20;99.90;;;;;;5023900;28;20636;-58
2024/01/25 10:06:04;;;;;;;20.23;5.03;;;12.20;99.90;;;;;;5020565;28;20206;-58
2024/01/25 10:08:31;;;;;;;18.87;4.10;;;12.10;99.90;;;;;;5021366;28;20265;-57
2024/01/25 10:10:57;;;;;;;21.53;4.27;;;11.90;99.90;;;;;;5024312;28;20203;-58
2024/01/25 10:13:24;;;;;;;21.20;4.83;;;11.80;99.90;;;;;;5026831;28;20863;-58
2024/01/25 10:15:50;;;;;;;22.30;4.57;;;11.80;99.90;;;;;;5025822;28;20707;-58
2024/01/25 10:18:17;;;;;;;22.17;4.07;;;11.90;99.90;;;;;;5022961;28;20219;-58
2024/01/25 10:20:44;;;;;;;22.40;4.57;;;11.80;99.90;;;;;;5022885;28;20211;-58
2024/01/25 10:23:12;;;;;;;23.13;4.63;;;11.60;99.90;;;;;;5025730;28;20198;-57
2024/01/25 10:25:39;;;;;;;17.87;4.10;;;11.70;99.90;;;;;;5026194;28;20264;-58
2024/01/25 10:28:07;;;;;;;13.70;4.23;;;11.80;99.90;;;;;;5023911;28;20219;-57
2024/01/25 10:30:35;;;;;;;16.07;4.10;;;11.90;99.90;;;;;;5022877;28;20672;-58
2024/01/25 10:33:04;;;;;;;20.10;4.53;;;11.90;99.90;;;;;;5024582;28;20215;-58
2024/01/25 10:35:32;;;;;;;20.50;4.73;;;11.80;99.90;;;;;;5026038;28;20214;-58
2024/01/25 10:37:59;;;;;;;17.30;4.07;;;11.70;99.90;;;;;;5024779;28;20206;-58
2024/01/25 10:40:28;;;;;;;17.33;4.20;;;11.60;99.90;;;;;;5022552;28;20203;-57
2024/01/25 10:42:55;;;;;;;21.53;4.60;;;11.60;99.90;;;;;;5023555;28;20210;-57
2024/01/25 10:45:22;;;;;;;19.30;4.57;;;11.70;99.90;;;;;;5026106;28;20549;-59
2024/01/25 10:47:49;;;;;;;16.47;4.40;;;11.80;99.90;;;;;;5025631;28;20242;-58
2024/01/25 10:50:16;;;;;;;19.03;4.80;;;11.90;99.90;;;;;;5014535;28;20223;-59
2024/01/25 10:52:43;;;;;;;21.13;4.07;;;12.10;99.90;;;;;;5022469;28;20207;-59
2024/01/25 10:55:12;;;;;;;19.50;4.60;;;12.20;99.90;;;;;;5024999;28;20835;-58
2024/01/25 10:57:43;;;;;;;18.93;4.10;;;12.30;99.90;;;;;;5025620;28;20621;-59
2024/01/25 11:00:11;;;;;;;18.17;4.00;;;12.50;99.90;;;;;;5022814;28;20234;-57
2024/01/25 11:02:39;;;;;;;16.43;4.47;;;12.40;99.90;;;;;;5022200;28;20309;-57
2024/01/25 11:05:09;;;;;;;15.27;4.80;;;12.40;99.90;;;;;;5023712;28;20207;-58
2024/01/25 11:07:43;;;;;;;19.63;4.57;;;12.50;99.90;;;;;;5025074;28;20567;-58
2024/01/25 11:10:17;;;;;;;16.63;4.33;;;12.80;99.90;;;;;;5022448;28;20373;-58
2024/01/25 11:12:52;;;;;;;15.43;3.40;;;13.00;99.90;;;;;;5022171;28;20207;-59
2024/01/25 11:15:22;;;;;;;18.90;4.50;;;13.40;99.90;;;;;;5014335;28;20285;-58
2024/01/25 11:17:54;;;;;;;16.57;5.00;;;13.80;99.90;;;;;;5021508;28;20270;-59
2024/01/25 11:20:24;;;;;;;19.17;5.30;;;14.10;99.90;;;;;;5013299;28;20210;-57
2024/01/25 11:22:57;;;;;;;16.33;4.07;;;14.30;99.90;;;;;;5021752;28;20580;-57
2024/01/25 11:25:24;;;;;;;16.17;4.77;;;14.50;99.90;;;;;;5025185;28;20210;-57
2024/01/25 11:27:52;;;;;;;18.50;4.27;;;14.60;99.90;;;;;;5024664;28;20230;-56
2024/01/25 11:30:20;;;;;;;19.57;4.00;;;14.70;99.90;;;;;;5021663;28;20207;-57
2024/01/25 11:32:48;;;;;;;23.03;4.43;;;14.60;99.90;;;;;;5021393;28;20678;-59
2024/01/25 11:35:16;;;;;;;17.20;4.20;;;14.60;99.90;;;;;;5024873;28;20616;-60
2024/01/25 11:37:44;;;;;;;15.47;3.93;;;14.40;99.90;;;;;;5024829;28;20206;-57
2024/01/25 11:40:11;;;;;;;18.87;4.40;;;14.20;99.90;;;;;;5021921;28;20316;-57
2024/01/25 11:42:38;;;;;;;14.83;3.73;;;13.90;99.90;;;;;;5021312;28;20211;-63
2024/01/25 11:45:09;;;;;;;12.63;3.67;;;13.80;99.90;;;;;;5023336;28;20272;-59
2024/01/25 11:47:36;;;;;;;14.97;3.97;;;13.80;99.90;;;;;;5024628;28;20293;-57
2024/01/25 11:50:03;;;;;;;16.77;4.40;;;13.80;99.90;;;;;;5023074;28;20284;-58
2024/01/25 11:52:31;;;;;;;19.30;4.80;;;13.60;99.90;;;;;;5021262;28;20665;-58
2024/01/25 11:54:57;;;;;;;17.83;6.23;;;13.40;99.90;;;;;;5022017;28;20664;-57
2024/01/25 11:57:24;;;;;;;11.83;3.50;;;13.50;99.90;;;;;;5024062;28;20206;-57
2024/01/25 11:59:51;;;;;;;17.97;4.00;;;13.70;99.90;;;;;;5024519;28;20276;-57
2024/01/25 12:02:19;;;;;;;17.80;4.53;;;13.90;99.90;;;;;;5011638;28;20210;-59
2024/01/25 12:04:47;;;;;;;13.87;3.60;;;14.00;99.90;;;;;;5020849;28;20561;-60
2024/01/25 12:07:15;;;;;;;12.20;3.27;;;14.00;99.90;;;;;;5023273;28;20667;-65
2024/01/25 12:09:41;;;;;;;15.33;3.57;;;14.20;99.90;;;;;;5024056;28;20708;-65
2024/01/25 12:12:10;;;;;;;13.03;3.90;;;14.30;99.90;;;;;;5021593;28;20559;-64
2024/01/25 12:14:37;;;;;;;13.33;4.07;;;14.50;99.90;;;;;;5020838;28;20207;-65
2024/01/25 12:17:04;;;;;;;18.67;3.80;;;14.80;99.90;;;;;;5021904;28;20588;-64
2024/01/25 12:19:33;;;;;;;11.67;3.33;;;15.10;99.90;;;;;;5023900;28;20317;-64
2024/01/25 12:22:01;;;;;;;13.27;3.47;;;15.40;99.90;;;;;;5023093;28;20212;-64
2024/01/25 12:24:28;;;;;;;14.97;4.33;;;15.70;99.90;;;;;;5020466;28;20206;-64
2024/01/25 12:26:55;;;;;;;13.33;3.73;;;16.10;99.90;;;;;;5020965;28;20253;-64
2024/01/25 12:29:23;;;;;;;16.63;3.83;;;16.10;99.90;;;;;;5023808;28;20764;-63
2024/01/25 12:31:49;;;;;;;14.50;4.05;;;15.80;99.90;;;;;;5023678;28;20210;-65
2024/01/25 12:34:16;;;;;;;12.00;3.60;;;15.80;99.90;;;;;;5020873;28;20329;-58
2024/01/25 12:36:44;;;;;;;17.40;3.93;;;15.60;99.90;;;;;;5024234;28;20597;-59
2024/01/25 12:39:12;;;;;;;13.77;3.25;;;15.50;99.90;;;;;;5021725;28;20232;-58